sensor_id;sensor_type;location;lat;lon;timestamp;pressure;altitude;pressure_sealevel;temperature
64296;BMP280;51082;38.236;15.432;2023-09-19T00:00:15;101570.56;;;28.09
64296;BMP280;51082;38.236;15.432;2023-09-19T00:01:17;101570.84;;;28.07
64296;BMP280;51082;38.236;15.432;2023-09-19T00:02:21;101559.34;;;28.07
64296;BMP280;51082;38.236;15.432;2023-09-19T00:03:22;101562.03;;;28.07
64296;BMP280;51082;38.236;15.432;2023-09-19T00:04:25;101564.72;;;28.07
64296;BMP280;51082;38.236;15.432;2023-09-19T00:05:34;101565.22;;;28.09
64296;BMP280;51082;38.236;15.432;2023-09-19T00:06:36;101563.91;;;28.06
64296;BMP280;51082;38.236;15.432;2023-09-19T00:07:39;101570.06;;;28.07
64296;BMP280;51082;38.236;15.432;2023-09-19T00:08:41;101565.50;;;28.07
64296;BMP280;51082;38.236;15.432;2023-09-19T00:09:45;101565.50;;;28.07
64296;BMP280;51082;38.236;15.432;2023-09-19T00:10:47;101562.53;;;28.09
64296;BMP280;51082;38.236;15.432;2023-09-19T00:11:49;101546.47;;;28.09
64296;BMP280;51082;38.236;15.432;2023-09-19T00:12:52;101556.09;;;28.10
64296;BMP280;51082;38.236;15.432;2023-09-19T00:13:58;101543.00;;;28.08
64296;BMP280;51082;38.236;15.432;2023-09-19T00:15:01;101553.41;;;28.10
64296;BMP280;51082;38.236;15.432;2023-09-19T00:16:08;101550.75;;;28.10
64296;BMP280;51082;38.236;15.432;2023-09-19T00:17:11;101546.47;;;28.09
64296;BMP280;51082;38.236;15.432;2023-09-19T00:18:13;101546.47;;;28.09
64296;BMP280;51082;38.236;15.432;2023-09-19T00:19:16;101550.22;;;28.08
64296;BMP280;51082;38.236;15.432;2023-09-19T00:20:18;101539.53;;;28.08
64296;BMP280;51082;38.236;15.432;2023-09-19T00:21:23;101544.88;;;28.08
64296;BMP280;51082;38.236;15.432;2023-09-19T00:22:25;101540.59;;;28.07
64296;BMP280;51082;38.236;15.432;2023-09-19T00:23:27;101544.06;;;28.07
64296;BMP280;51082;38.236;15.432;2023-09-19T00:24:30;101550.22;;;28.08
64296;BMP280;51082;38.236;15.432;2023-09-19T00:25:32;101545.66;;;28.08
64296;BMP280;51082;38.236;15.432;2023-09-19T00:26:36;101555.59;;;28.08
64296;BMP280;51082;38.236;15.432;2023-09-19T00:27:38;101552.91;;;28.08
64296;BMP280;51082;38.236;15.432;2023-09-19T00:28:42;101544.06;;;28.07
64296;BMP280;51082;38.236;15.432;2023-09-19T00:29:45;101548.63;;;28.07
64296;BMP280;51082;38.236;15.432;2023-09-19T00:30:48;101539.19;;;28.09
64296;BMP280;51082;38.236;15.432;2023-09-19T00:31:51;101543.78;;;28.09
64296;BMP280;51082;38.236;15.432;2023-09-19T00:32:53;101547.56;;;28.08
64296;BMP280;51082;38.236;15.432;2023-09-19T00:33:55;101534.97;;;28.08
64296;BMP280;51082;38.236;15.432;2023-09-19T00:35:01;101535.25;;;28.07
64296;BMP280;51082;38.236;15.432;2023-09-19T00:36:03;101533.06;;;28.09
64296;BMP280;51082;38.236;15.432;2023-09-19T00:37:06;101531.47;;;28.08
64296;BMP280;51082;38.236;15.432;2023-09-19T00:38:08;101528.81;;;28.08
64296;BMP280;51082;38.236;15.432;2023-09-19T00:39:11;101527.22;;;28.07
64296;BMP280;51082;38.236;15.432;2023-09-19T00:40:13;101521.84;;;28.07
64296;BMP280;51082;38.236;15.432;2023-09-19T00:41:16;101520.28;;;28.06
64296;BMP280;51082;38.236;15.432;2023-09-19T00:42:19;101516.22;;;28.08
64296;BMP280;51082;38.236;15.432;2023-09-19T00:43:22;101516.50;;;28.07
64296;BMP280;51082;38.236;15.432;2023-09-19T00:44:25;101521.84;;;28.07
64296;BMP280;51082;38.236;15.432;2023-09-19T00:45:29;101515.72;;;28.06
64296;BMP280;51082;38.236;15.432;2023-09-19T00:46:31;101511.16;;;28.07
64296;BMP280;51082;38.236;15.432;2023-09-19T00:47:35;101507.38;;;28.08
64296;BMP280;51082;38.236;15.432;2023-09-19T00:48:40;101514.63;;;28.07
64296;BMP280;51082;38.236;15.432;2023-09-19T00:49:45;101499.34;;;28.08
64296;BMP280;51082;38.236;15.432;2023-09-19T00:50:50;101506.28;;;28.09
64296;BMP280;51082;38.236;15.432;2023-09-19T00:51:55;101506.59;;;28.07
64296;BMP280;51082;38.236;15.432;2023-09-19T00:52:56;101505.22;;;28.10
64296;BMP280;51082;38.236;15.432;2023-09-19T00:53:59;101517.00;;;28.09
64296;BMP280;51082;38.236;15.432;2023-09-19T00:55:00;101508.97;;;28.09
64296;BMP280;51082;38.236;15.432;2023-09-19T00:56:03;101506.28;;;28.09
64296;BMP280;51082;38.236;15.432;2023-09-19T00:57:08;101509.28;;;28.07
64296;BMP280;51082;38.236;15.432;2023-09-19T00:58:11;101518.88;;;28.08
64296;BMP280;51082;38.236;15.432;2023-09-19T00:59:12;101518.09;;;28.08
64296;BMP280;51082;38.236;15.432;2023-09-19T01:00:15;101525.03;;;28.09
64296;BMP280;51082;38.236;15.432;2023-09-19T01:01:18;101518.59;;;28.10
64296;BMP280;51082;38.236;15.432;2023-09-19T01:02:21;101514.34;;;28.09
64296;BMP280;51082;38.236;15.432;2023-09-19T01:03:22;101518.88;;;28.08
64296;BMP280;51082;38.236;15.432;2023-09-19T01:04:24;101516.50;;;28.07
64296;BMP280;51082;38.236;15.432;2023-09-19T01:05:29;101513.81;;;28.07
64296;BMP280;51082;38.236;15.432;2023-09-19T01:06:30;101518.09;;;28.08
64296;BMP280;51082;38.236;15.432;2023-09-19T01:07:33;101505.78;;;28.07
64296;BMP280;51082;38.236;15.432;2023-09-19T01:08:35;101506.59;;;28.07
64296;BMP280;51082;38.236;15.432;2023-09-19T01:09:38;101500.44;;;28.07
64296;BMP280;51082;38.236;15.432;2023-09-19T01:10:46;101498.25;;;28.09
64296;BMP280;51082;38.236;15.432;2023-09-19T01:11:58;101500.16;;;28.08
64296;BMP280;51082;38.236;15.432;2023-09-19T01:13:07;101496.69;;;28.08
64296;BMP280;51082;38.236;15.432;2023-09-19T01:14:20;101503.91;;;28.07
64296;BMP280;51082;38.236;15.432;2023-09-19T01:15:32;101497.75;;;28.07
64296;BMP280;51082;38.236;15.432;2023-09-19T01:16:50;101508.19;;;28.08
64296;BMP280;51082;38.236;15.432;2023-09-19T01:17:59;101507.38;;;28.08
64296;BMP280;51082;38.236;15.432;2023-09-19T01:19:21;101517.00;;;28.09
64296;BMP280;51082;38.236;15.432;2023-09-19T01:20:33;101518.88;;;28.08
64296;BMP280;51082;38.236;15.432;2023-09-19T01:21:44;101520.78;;;28.08
64296;BMP280;51082;38.236;15.432;2023-09-19T01:22:56;101524.53;;;28.07
64296;BMP280;51082;38.236;15.432;2023-09-19T01:24:16;101518.38;;;28.06
64296;BMP280;51082;38.236;15.432;2023-09-19T01:25:40;101520.78;;;28.08
64296;BMP280;51082;38.236;15.432;2023-09-19T01:27:05;101524.53;;;28.07
64296;BMP280;51082;38.236;15.432;2023-09-19T01:28:20;101532.56;;;28.07
64296;BMP280;51082;38.236;15.432;2023-09-19T01:29:37;101533.38;;;28.07
64296;BMP280;51082;38.236;15.432;2023-09-19T01:30:43;101545.97;;;28.07
64296;BMP280;51082;38.236;15.432;2023-09-19T01:31:45;101545.97;;;28.07
64296;BMP280;51082;38.236;15.432;2023-09-19T01:32:47;101544.88;;;28.08
64296;BMP280;51082;38.236;15.432;2023-09-19T01:33:58;101544.88;;;28.08
64296;BMP280;51082;38.236;15.432;2023-09-19T01:35:00;101551.81;;;28.09
64296;BMP280;51082;38.236;15.432;2023-09-19T01:36:06;101548.63;;;28.07
64296;BMP280;51082;38.236;15.432;2023-09-19T01:37:10;101545.16;;;28.06
64296;BMP280;51082;38.236;15.432;2023-09-19T01:38:13;101548.63;;;28.07
64296;BMP280;51082;38.236;15.432;2023-09-19T01:39:16;101548.34;;;28.08
64296;BMP280;51082;38.236;15.432;2023-09-19T01:40:21;101547.56;;;28.08
64296;BMP280;51082;38.236;15.432;2023-09-19T01:41:30;101546.47;;;28.09
64296;BMP280;51082;38.236;15.432;2023-09-19T01:42:39;101549.16;;;28.09
64296;BMP280;51082;38.236;15.432;2023-09-19T01:43:43;101543.00;;;28.08
64296;BMP280;51082;38.236;15.432;2023-09-19T01:44:52;101543.28;;;28.07
64296;BMP280;51082;38.236;15.432;2023-09-19T01:46:04;101542.19;;;28.08
64296;BMP280;51082;38.236;15.432;2023-09-19T01:47:13;101544.06;;;28.07
64296;BMP280;51082;38.236;15.432;2023-09-19T01:48:23;101545.66;;;28.08
64296;BMP280;51082;38.236;15.432;2023-09-19T01:49:33;101543.78;;;28.09
64296;BMP280;51082;38.236;15.432;2023-09-19T01:50:44;101545.66;;;28.08
64296;BMP280;51082;38.236;15.432;2023-09-19T01:51:53;101551.31;;;28.07
64296;BMP280;51082;38.236;15.432;2023-09-19T01:53:04;101547.06;;;28.06
64296;BMP280;51082;38.236;15.432;2023-09-19T01:54:11;101543.28;;;28.07
64296;BMP280;51082;38.236;15.432;2023-09-19T01:55:15;101547.84;;;28.06
64296;BMP280;51082;38.236;15.432;2023-09-19T01:56:23;101553.19;;;28.06
64296;BMP280;51082;38.236;15.432;2023-09-19T01:57:29;101554.00;;;28.07
64296;BMP280;51082;38.236;15.432;2023-09-19T01:58:37;101555.88;;;28.06
64296;BMP280;51082;38.236;15.432;2023-09-19T01:59:49;101556.66;;;28.07
64296;BMP280;51082;38.236;15.432;2023-09-19T02:00:54;101556.38;;;28.08
64296;BMP280;51082;38.236;15.432;2023-09-19T02:01:59;101560.16;;;28.07
64296;BMP280;51082;38.236;15.432;2023-09-19T02:03:03;101559.34;;;28.07
64296;BMP280;51082;38.236;15.432;2023-09-19T02:04:07;101560.47;;;28.06
64296;BMP280;51082;38.236;15.432;2023-09-19T02:05:08;101552.69;;;28.04
64296;BMP280;51082;38.236;15.432;2023-09-19T02:06:14;101562.34;;;28.05
64296;BMP280;51082;38.236;15.432;2023-09-19T02:07:16;101559.66;;;28.05
64296;BMP280;51082;38.236;15.432;2023-09-19T02:08:20;101556.16;;;28.05
64296;BMP280;51082;38.236;15.432;2023-09-19T02:09:22;101564.19;;;28.05
64296;BMP280;51082;38.236;15.432;2023-09-19T02:10:25;101561.50;;;28.05
64296;BMP280;51082;38.236;15.432;2023-09-19T02:11:26;101562.34;;;28.05
64296;BMP280;51082;38.236;15.432;2023-09-19T02:12:29;101556.16;;;28.05
64296;BMP280;51082;38.236;15.432;2023-09-19T02:13:31;101556.16;;;28.05
64296;BMP280;51082;38.236;15.432;2023-09-19T02:14:34;101556.16;;;28.05
64296;BMP280;51082;38.236;15.432;2023-09-19T02:15:36;101552.44;;;28.06
64296;BMP280;51082;38.236;15.432;2023-09-19T02:16:39;101550.00;;;28.04
64296;BMP280;51082;38.236;15.432;2023-09-19T02:17:43;101550.81;;;28.05
64296;BMP280;51082;38.236;15.432;2023-09-19T02:18:47;101550.81;;;28.05
64296;BMP280;51082;38.236;15.432;2023-09-19T02:19:50;101549.22;;;28.04
64296;BMP280;51082;38.236;15.432;2023-09-19T02:20:53;101540.09;;;28.05
64296;BMP280;51082;38.236;15.432;2023-09-19T02:21:55;101540.09;;;28.05
64296;BMP280;51082;38.236;15.432;2023-09-19T02:22:57;101542.78;;;28.05
64296;BMP280;51082;38.236;15.432;2023-09-19T02:23:59;101539.63;;;28.03
64296;BMP280;51082;38.236;15.432;2023-09-19T02:25:04;101537.41;;;28.05
64296;BMP280;51082;38.236;15.432;2023-09-19T02:26:06;101535.81;;;28.04
64296;BMP280;51082;38.236;15.432;2023-09-19T02:27:09;101533.94;;;28.04
64296;BMP280;51082;38.236;15.432;2023-09-19T02:28:10;101533.16;;;28.04
64296;BMP280;51082;38.236;15.432;2023-09-19T02:29:13;101533.16;;;28.04
64296;BMP280;51082;38.236;15.432;2023-09-19T02:30:15;101531.25;;;28.04
64296;BMP280;51082;38.236;15.432;2023-09-19T02:31:21;101539.31;;;28.04
64296;BMP280;51082;38.236;15.432;2023-09-19T02:32:23;101540.09;;;28.05
64296;BMP280;51082;38.236;15.432;2023-09-19T02:33:28;101533.94;;;28.04
64296;BMP280;51082;38.236;15.432;2023-09-19T02:34:33;101538.50;;;28.04
64296;BMP280;51082;38.236;15.432;2023-09-19T02:35:37;101537.41;;;28.05
64296;BMP280;51082;38.236;15.432;2023-09-19T02:36:39;101534.75;;;28.05
64296;BMP280;51082;38.236;15.432;2023-09-19T02:37:41;101539.31;;;28.04
64296;BMP280;51082;38.236;15.432;2023-09-19T02:38:43;101545.44;;;28.05
64296;BMP280;51082;38.236;15.432;2023-09-19T02:39:45;101546.28;;;28.05
64296;BMP280;51082;38.236;15.432;2023-09-19T02:40:47;101538.50;;;28.04
64296;BMP280;51082;38.236;15.432;2023-09-19T02:41:50;101537.41;;;28.05
64296;BMP280;51082;38.236;15.432;2023-09-19T02:42:53;101544.66;;;28.04
64296;BMP280;51082;38.236;15.432;2023-09-19T02:43:56;101541.19;;;28.04
64296;BMP280;51082;38.236;15.432;2023-09-19T02:44:57;101544.66;;;28.04
64296;BMP280;51082;38.236;15.432;2023-09-19T02:46:00;101549.22;;;28.04
64296;BMP280;51082;38.236;15.432;2023-09-19T02:47:03;101550.81;;;28.05
64296;BMP280;51082;38.236;15.432;2023-09-19T02:48:06;101550.81;;;28.05
64296;BMP280;51082;38.236;15.432;2023-09-19T02:49:10;101550.81;;;28.05
64296;BMP280;51082;38.236;15.432;2023-09-19T02:50:15;101554.56;;;28.04
64296;BMP280;51082;38.236;15.432;2023-09-19T02:51:17;101558.34;;;28.03
64296;BMP280;51082;38.236;15.432;2023-09-19T02:52:21;101558.03;;;28.04
64296;BMP280;51082;38.236;15.432;2023-09-19T02:53:23;101557.25;;;28.04
64296;BMP280;51082;38.236;15.432;2023-09-19T02:54:26;101551.63;;;28.05
64296;BMP280;51082;38.236;15.432;2023-09-19T02:55:28;101557.78;;;28.06
64296;BMP280;51082;38.236;15.432;2023-09-19T02:56:29;101557.25;;;28.04
64296;BMP280;51082;38.236;15.432;2023-09-19T02:57:33;101549.22;;;28.04
64296;BMP280;51082;38.236;15.432;2023-09-19T02:58:35;101546.06;;;28.02
64296;BMP280;51082;38.236;15.432;2023-09-19T02:59:38;101543.38;;;28.02
64296;BMP280;51082;38.236;15.432;2023-09-19T03:00:40;101544.47;;;28.01
64296;BMP280;51082;38.236;15.432;2023-09-19T03:01:43;101550.34;;;28.03
64296;BMP280;51082;38.236;15.432;2023-09-19T03:02:45;101540.69;;;28.02
64296;BMP280;51082;38.236;15.432;2023-09-19T03:03:47;101547.66;;;28.03
64296;BMP280;51082;38.236;15.432;2023-09-19T03:04:50;101542.28;;;28.03
64296;BMP280;51082;38.236;15.432;2023-09-19T03:05:53;101543.06;;;28.03
64296;BMP280;51082;38.236;15.432;2023-09-19T03:06:55;101544.97;;;28.03
64296;BMP280;51082;38.236;15.432;2023-09-19T03:08:01;101543.06;;;28.03
64296;BMP280;51082;38.236;15.432;2023-09-19T03:09:03;101543.84;;;28.04
64296;BMP280;51082;38.236;15.432;2023-09-19T03:10:08;101537.69;;;28.03
64296;BMP280;51082;38.236;15.432;2023-09-19T03:11:09;101537.69;;;28.03
64296;BMP280;51082;38.236;15.432;2023-09-19T03:12:13;101538.50;;;28.04
64296;BMP280;51082;38.236;15.432;2023-09-19T03:13:17;101533.16;;;28.04
64296;BMP280;51082;38.236;15.432;2023-09-19T03:14:19;101535.81;;;28.04
64296;BMP280;51082;38.236;15.432;2023-09-19T03:15:21;101524.63;;;28.02
64296;BMP280;51082;38.236;15.432;2023-09-19T03:16:23;101529.69;;;28.03
64296;BMP280;51082;38.236;15.432;2023-09-19T03:17:26;101531.59;;;28.03
64296;BMP280;51082;38.236;15.432;2023-09-19T03:18:28;101530.47;;;28.04
64296;BMP280;51082;38.236;15.432;2023-09-19T03:19:30;101531.59;;;28.03
64296;BMP280;51082;38.236;15.432;2023-09-19T03:20:35;101539.63;;;28.03
64296;BMP280;51082;38.236;15.432;2023-09-19T03:21:37;101533.16;;;28.04
64296;BMP280;51082;38.236;15.432;2023-09-19T03:22:40;101545.44;;;28.05
64296;BMP280;51082;38.236;15.432;2023-09-19T03:23:42;101549.22;;;28.04
64296;BMP280;51082;38.236;15.432;2023-09-19T03:24:46;101543.06;;;28.03
64296;BMP280;51082;38.236;15.432;2023-09-19T03:25:48;101537.41;;;28.05
64296;BMP280;51082;38.236;15.432;2023-09-19T03:26:51;101552.44;;;28.06
64296;BMP280;51082;38.236;15.432;2023-09-19T03:27:53;101554.31;;;28.05
64296;BMP280;51082;38.236;15.432;2023-09-19T03:28:55;101545.44;;;28.05
64296;BMP280;51082;38.236;15.432;2023-09-19T03:29:57;101545.75;;;28.03
64296;BMP280;51082;38.236;15.432;2023-09-19T03:30:59;101549.22;;;28.04
64296;BMP280;51082;38.236;15.432;2023-09-19T03:32:03;101540.09;;;28.05
64296;BMP280;51082;38.236;15.432;2023-09-19T03:33:05;101543.84;;;28.04
64296;BMP280;51082;38.236;15.432;2023-09-19T03:34:07;101551.09;;;28.03
64296;BMP280;51082;38.236;15.432;2023-09-19T03:35:10;101554.56;;;28.04
64296;BMP280;51082;38.236;15.432;2023-09-19T03:36:16;101563.72;;;28.03
64296;BMP280;51082;38.236;15.432;2023-09-19T03:37:19;101559.94;;;28.04
64296;BMP280;51082;38.236;15.432;2023-09-19T03:38:20;101555.97;;;28.01
64296;BMP280;51082;38.236;15.432;2023-09-19T03:39:23;101572.03;;;28.01
64296;BMP280;51082;38.236;15.432;2023-09-19T03:40:25;101561.81;;;28.03
64296;BMP280;51082;38.236;15.432;2023-09-19T03:41:27;101567.97;;;28.04
64296;BMP280;51082;38.236;15.432;2023-09-19T03:42:29;101572.84;;;28.02
64296;BMP280;51082;38.236;15.432;2023-09-19T03:43:31;101566.69;;;28.01
64296;BMP280;51082;38.236;15.432;2023-09-19T03:44:34;101571.25;;;28.01
64296;BMP280;51082;38.236;15.432;2023-09-19T03:45:35;101571.25;;;28.01
64296;BMP280;51082;38.236;15.432;2023-09-19T03:46:39;101563.50;;;27.99
64296;BMP280;51082;38.236;15.432;2023-09-19T03:47:41;101563.50;;;27.99
64296;BMP280;51082;38.236;15.432;2023-09-19T03:48:43;101554.66;;;27.99
64296;BMP280;51082;38.236;15.432;2023-09-19T03:49:45;101556.53;;;27.98
64296;BMP280;51082;38.236;15.432;2023-09-19T03:50:46;101559.22;;;27.98
64296;BMP280;51082;38.236;15.432;2023-09-19T03:51:50;101559.69;;;28.00
64296;BMP280;51082;38.236;15.432;2023-09-19T03:52:56;101565.06;;;28.00
64296;BMP280;51082;38.236;15.432;2023-09-19T03:53:58;101572.31;;;28.00
64296;BMP280;51082;38.236;15.432;2023-09-19T03:55:00;101571.25;;;28.01
64296;BMP280;51082;38.236;15.432;2023-09-19T03:56:03;101574.72;;;28.01
64296;BMP280;51082;38.236;15.432;2023-09-19T03:57:05;101572.03;;;28.01
64296;BMP280;51082;38.236;15.432;2023-09-19T03:58:07;101573.91;;;28.01
64296;BMP280;51082;38.236;15.432;2023-09-19T03:59:09;101570.16;;;28.02
64296;BMP280;51082;38.236;15.432;2023-09-19T04:00:12;101572.84;;;28.02
64296;BMP280;51082;38.236;15.432;2023-09-19T04:01:15;101571.25;;;28.01
64296;BMP280;51082;38.236;15.432;2023-09-19T04:02:19;101569.66;;;28.00
64296;BMP280;51082;38.236;15.432;2023-09-19T04:03:23;101573.91;;;28.01
64296;BMP280;51082;38.236;15.432;2023-09-19T04:04:35;101569.66;;;28.00
64296;BMP280;51082;38.236;15.432;2023-09-19T04:05:36;101566.97;;;28.00
64296;BMP280;51082;38.236;15.432;2023-09-19T04:06:39;101570.72;;;27.99
64296;BMP280;51082;38.236;15.432;2023-09-19T04:07:42;101563.50;;;27.99
64296;BMP280;51082;38.236;15.432;2023-09-19T04:08:44;101565.38;;;27.99
64296;BMP280;51082;38.236;15.432;2023-09-19T04:09:47;101558.94;;;28.00
64296;BMP280;51082;38.236;15.432;2023-09-19T04:10:50;101568.06;;;27.99
64296;BMP280;51082;38.236;15.432;2023-09-19T04:11:52;101556.53;;;27.98
64296;BMP280;51082;38.236;15.432;2023-09-19T04:12:55;101558.94;;;28.00
64296;BMP280;51082;38.236;15.432;2023-09-19T04:13:57;101559.69;;;28.00
64296;BMP280;51082;38.236;15.432;2023-09-19T04:14:59;101549.00;;;28.00
64296;BMP280;51082;38.236;15.432;2023-09-19T04:16:01;101552.00;;;27.99
64296;BMP280;51082;38.236;15.432;2023-09-19T04:17:02;101558.94;;;28.00
64296;BMP280;51082;38.236;15.432;2023-09-19T04:18:06;101548.22;;;28.00
64296;BMP280;51082;38.236;15.432;2023-09-19T04:19:07;101557.84;;;28.01
64296;BMP280;51082;38.236;15.432;2023-09-19T04:20:10;101557.84;;;28.01
64296;BMP280;51082;38.236;15.432;2023-09-19T04:21:13;101561.63;;;28.00
64296;BMP280;51082;38.236;15.432;2023-09-19T04:22:15;101561.63;;;28.00
64296;BMP280;51082;38.236;15.432;2023-09-19T04:23:18;101564.28;;;28.00
64296;BMP280;51082;38.236;15.432;2023-09-19T04:24:21;101560.53;;;28.01
64296;BMP280;51082;38.236;15.432;2023-09-19T04:25:23;101565.06;;;28.00
64296;BMP280;51082;38.236;15.432;2023-09-19T04:26:28;101556.25;;;28.00
64296;BMP280;51082;38.236;15.432;2023-09-19T04:27:30;101560.53;;;28.01
64296;BMP280;51082;38.236;15.432;2023-09-19T04:28:31;101559.69;;;28.00
64296;BMP280;51082;38.236;15.432;2023-09-19T04:29:35;101555.19;;;28.01
64296;BMP280;51082;38.236;15.432;2023-09-19T04:30:36;101549.00;;;28.00
64296;BMP280;51082;38.236;15.432;2023-09-19T04:31:41;101551.19;;;27.98
64296;BMP280;51082;38.236;15.432;2023-09-19T04:32:46;101544.75;;;27.99
64296;BMP280;51082;38.236;15.432;2023-09-19T04:33:51;101555.19;;;28.01
64296;BMP280;51082;38.236;15.432;2023-09-19T04:34:53;101550.91;;;28.00
64296;BMP280;51082;38.236;15.432;2023-09-19T04:35:54;101558.16;;;27.99
64296;BMP280;51082;38.236;15.432;2023-09-19T04:36:57;101554.66;;;27.99
64296;BMP280;51082;38.236;15.432;2023-09-19T04:38:01;101548.22;;;28.00
64296;BMP280;51082;38.236;15.432;2023-09-19T04:39:05;101554.94;;;27.97
64296;BMP280;51082;38.236;15.432;2023-09-19T04:40:09;101552.00;;;27.99
64296;BMP280;51082;38.236;15.432;2023-09-19T04:41:15;101556.25;;;28.00
64296;BMP280;51082;38.236;15.432;2023-09-19T04:42:16;101556.25;;;28.00
64296;BMP280;51082;38.236;15.432;2023-09-19T04:43:20;101557.34;;;27.99
64296;BMP280;51082;38.236;15.432;2023-09-19T04:44:21;101551.19;;;27.98
64296;BMP280;51082;38.236;15.432;2023-09-19T04:45:24;101547.72;;;27.98
64296;BMP280;51082;38.236;15.432;2023-09-19T04:46:25;101549.31;;;27.99
64296;BMP280;51082;38.236;15.432;2023-09-19T04:47:27;101554.66;;;27.99
64296;BMP280;51082;38.236;15.432;2023-09-19T04:48:29;101550.09;;;27.99
64296;BMP280;51082;38.236;15.432;2023-09-19T04:49:32;101555.47;;;27.99
64296;BMP280;51082;38.236;15.432;2023-09-19T04:50:35;101553.59;;;28.00
64296;BMP280;51082;38.236;15.432;2023-09-19T04:51:38;101554.66;;;27.99
64296;BMP280;51082;38.236;15.432;2023-09-19T04:52:40;101548.50;;;27.98
64296;BMP280;51082;38.236;15.432;2023-09-19T04:53:45;101550.41;;;27.98
64296;BMP280;51082;38.236;15.432;2023-09-19T04:54:48;101546.63;;;27.99
64296;BMP280;51082;38.236;15.432;2023-09-19T04:55:51;101545.03;;;27.98
64296;BMP280;51082;38.236;15.432;2023-09-19T04:56:53;101543.47;;;27.97
64296;BMP280;51082;38.236;15.432;2023-09-19T04:57:56;101548.84;;;27.97
64296;BMP280;51082;38.236;15.432;2023-09-19T04:58:58;101548.50;;;27.98
64296;BMP280;51082;38.236;15.432;2023-09-19T04:59:59;101554.19;;;27.97
64296;BMP280;51082;38.236;15.432;2023-09-19T05:01:03;101552.56;;;27.96
64296;BMP280;51082;38.236;15.432;2023-09-19T05:02:05;101553.41;;;27.96
64296;BMP280;51082;38.236;15.432;2023-09-19T05:03:09;101560.59;;;27.96
64296;BMP280;51082;38.236;15.432;2023-09-19T05:04:10;101562.22;;;27.97
64296;BMP280;51082;38.236;15.432;2023-09-19T05:05:14;101556.53;;;27.98
64296;BMP280;51082;38.236;15.432;2023-09-19T05:06:15;101560.59;;;27.96
64296;BMP280;51082;38.236;15.432;2023-09-19T05:07:18;101563.78;;;27.98
64296;BMP280;51082;38.236;15.432;2023-09-19T05:08:20;101560.59;;;27.96
64296;BMP280;51082;38.236;15.432;2023-09-19T05:09:23;101562.22;;;27.97
64296;BMP280;51082;38.236;15.432;2023-09-19T05:10:26;101554.19;;;27.97
64296;BMP280;51082;38.236;15.432;2023-09-19T05:11:27;101561.44;;;27.96
64296;BMP280;51082;38.236;15.432;2023-09-19T05:12:31;101557.91;;;27.96
64296;BMP280;51082;38.236;15.432;2023-09-19T05:13:33;101560.31;;;27.97
64296;BMP280;51082;38.236;15.432;2023-09-19T05:14:35;101556.88;;;27.97
64296;BMP280;51082;38.236;15.432;2023-09-19T05:15:37;101563.78;;;27.98
64296;BMP280;51082;38.236;15.432;2023-09-19T05:16:40;101559.53;;;27.97
64296;BMP280;51082;38.236;15.432;2023-09-19T05:17:41;101566.47;;;27.98
64296;BMP280;51082;38.236;15.432;2023-09-19T05:18:44;101569.44;;;27.96
64296;BMP280;51082;38.236;15.432;2023-09-19T05:19:45;101566.78;;;27.96
64296;BMP280;51082;38.236;15.432;2023-09-19T05:20:48;101564.91;;;27.97
64296;BMP280;51082;38.236;15.432;2023-09-19T05:21:50;101577.50;;;27.96
64296;BMP280;51082;38.236;15.432;2023-09-19T05:22:58;101566.47;;;27.98
64296;BMP280;51082;38.236;15.432;2023-09-19T05:23:59;101565.66;;;27.97
64296;BMP280;51082;38.236;15.432;2023-09-19T05:25:02;101559.53;;;27.97
64296;BMP280;51082;38.236;15.432;2023-09-19T05:26:07;101559.53;;;27.97
64296;BMP280;51082;38.236;15.432;2023-09-19T05:27:09;101553.06;;;27.98
64296;BMP280;51082;38.236;15.432;2023-09-19T05:28:11;101546.94;;;27.97
64296;BMP280;51082;38.236;15.432;2023-09-19T05:29:16;101548.84;;;27.97
64296;BMP280;51082;38.236;15.432;2023-09-19T05:30:18;101544.25;;;27.97
64296;BMP280;51082;38.236;15.432;2023-09-19T05:31:21;101538.88;;;27.97
64296;BMP280;51082;38.236;15.432;2023-09-19T05:32:25;101544.25;;;27.97
64296;BMP280;51082;38.236;15.432;2023-09-19T05:33:26;101543.47;;;27.97
64296;BMP280;51082;38.236;15.432;2023-09-19T05:34:29;101544.53;;;27.96
64296;BMP280;51082;38.236;15.432;2023-09-19T05:35:31;101548.84;;;27.97
64296;BMP280;51082;38.236;15.432;2023-09-19T05:36:34;101546.16;;;27.97
64296;BMP280;51082;38.236;15.432;2023-09-19T05:37:35;101543.47;;;27.97
64296;BMP280;51082;38.236;15.432;2023-09-19T05:38:38;101544.53;;;27.96
64296;BMP280;51082;38.236;15.432;2023-09-19T05:39:42;101549.09;;;27.95
64296;BMP280;51082;38.236;15.432;2023-09-19T05:40:45;101557.13;;;27.95
64296;BMP280;51082;38.236;15.432;2023-09-19T05:41:48;101559.53;;;27.97
64296;BMP280;51082;38.236;15.432;2023-09-19T05:42:50;101561.09;;;27.98
64296;BMP280;51082;38.236;15.432;2023-09-19T05:43:52;101559.53;;;27.97
64296;BMP280;51082;38.236;15.432;2023-09-19T05:44:55;101565.66;;;27.97
64296;BMP280;51082;38.236;15.432;2023-09-19T05:45:59;101565.66;;;27.97
64296;BMP280;51082;38.236;15.432;2023-09-19T05:47:02;101565.66;;;27.97
64296;BMP280;51082;38.236;15.432;2023-09-19T05:48:08;101565.94;;;27.96
64296;BMP280;51082;38.236;15.432;2023-09-19T05:49:12;101569.44;;;27.96
64296;BMP280;51082;38.236;15.432;2023-09-19T05:50:13;101564.09;;;27.96
64296;BMP280;51082;38.236;15.432;2023-09-19T05:51:17;101565.94;;;27.96
64296;BMP280;51082;38.236;15.432;2023-09-19T05:52:19;101568.63;;;27.96
64296;BMP280;51082;38.236;15.432;2023-09-19T05:53:23;101569.44;;;27.96
64296;BMP280;51082;38.236;15.432;2023-09-19T05:54:24;101575.59;;;27.97
64296;BMP280;51082;38.236;15.432;2023-09-19T05:55:28;101580.97;;;27.97
64296;BMP280;51082;38.236;15.432;2023-09-19T05:56:30;101584.69;;;27.96